GCI weather

Guernsey Airport
Saint Peter Port, Guernsey

Public forecast

Using degrees Celsius for public forecast. Weather courtesy of forecast.io.

METAR (pilot weather report)

Retrieved 2019/05/24 04:20 UTC (13 minutes ago):

EGJB 240420Z 32007KT CAVOK 10/09 Q1018

TAF (pilot weather forecast)

Forecast is more than 12 hours old.

Closest forecast is Lannion-Côte de Granit Airport, 53.3 nm (98.7 km) SW. Retrieved 2019/05/15 19:06 UTC (8 days ago):

TAF LFRO 151936Z 1519/1612 CNL